createdAt,value
2019-02-21T00:01:01.684Z,4.47
2019-02-21T00:03:31.294Z,4.40
2019-02-21T00:06:00.802Z,5.20
2019-02-21T00:08:30.339Z,4.40
2019-02-21T00:10:59.960Z,5.30
2019-02-21T00:13:29.453Z,4.50
2019-02-21T00:15:58.946Z,4.00
2019-02-21T00:18:28.388Z,4.70
2019-02-21T00:20:57.890Z,4.37
2019-02-21T00:23:27.416Z,4.70
2019-02-21T00:25:56.866Z,4.80
2019-02-21T00:28:26.312Z,4.40
2019-02-21T00:30:55.849Z,5.17
2019-02-21T00:33:25.389Z,4.60
2019-02-21T00:35:54.937Z,4.37
2019-02-21T00:38:24.409Z,4.77
2019-02-21T00:40:53.870Z,4.73
2019-02-21T00:43:23.337Z,4.43
2019-02-21T00:45:52.877Z,5.20
2019-02-21T00:48:22.329Z,4.47
2019-02-21T00:50:51.848Z,5.20
2019-02-21T00:53:21.679Z,5.13
2019-02-21T00:55:51.251Z,4.97
2019-02-21T00:58:20.787Z,5.10
2019-02-21T01:00:50.290Z,4.30
2019-02-21T01:03:19.831Z,4.90
2019-02-21T01:05:49.315Z,4.73
2019-02-21T01:08:18.781Z,5.50
2019-02-21T01:10:48.402Z,4.60
2019-02-21T01:13:18.044Z,5.63
2019-02-21T01:15:47.520Z,5.10
2019-02-21T01:18:17.267Z,5.57
2019-02-21T01:20:46.744Z,5.13
2019-02-21T01:23:16.208Z,5.20
2019-02-21T01:25:45.660Z,4.50
2019-02-21T01:28:15.388Z,5.37
2019-02-21T01:30:44.968Z,5.23
2019-02-21T01:33:14.496Z,5.07
2019-02-21T01:35:43.990Z,5.40
2019-02-21T01:38:13.665Z,5.40
2019-02-21T01:40:43.144Z,5.13
2019-02-21T01:43:12.603Z,5.47
2019-02-21T01:45:42.064Z,5.30
2019-02-21T01:48:11.529Z,5.40
2019-02-21T01:50:41.015Z,5.10
2019-02-21T01:53:10.648Z,4.90
2019-02-21T01:55:40.131Z,6.00
2019-02-21T01:58:09.587Z,5.43
2019-02-21T02:00:39.075Z,5.30
2019-02-21T02:03:08.627Z,5.57
2019-02-21T02:05:38.103Z,5.23
2019-02-21T02:08:07.569Z,5.03
2019-02-21T02:10:37.028Z,5.50
2019-02-21T02:13:06.624Z,5.30
2019-02-21T02:15:36.069Z,5.47
2019-02-21T02:18:05.714Z,6.03
2019-02-21T02:20:35.170Z,5.27
2019-02-21T02:23:04.775Z,5.83
2019-02-21T02:25:34.237Z,5.33
2019-02-21T02:28:03.779Z,5.90
2019-02-21T02:30:33.349Z,5.57
2019-02-21T02:33:02.898Z,5.57
2019-02-21T02:35:32.531Z,6.43
2019-02-21T02:38:02.007Z,5.80
2019-02-21T02:40:31.469Z,6.00
2019-02-21T02:43:01.036Z,6.37
2019-02-21T02:45:30.568Z,6.67
2019-02-21T02:48:00.191Z,6.60
2019-02-21T02:50:29.729Z,6.60
2019-02-21T02:52:59.380Z,6.50
2019-02-21T02:55:28.900Z,6.20
2019-02-21T02:57:58.552Z,7.10
2019-02-21T03:00:28.075Z,6.90
2019-02-21T03:02:57.590Z,7.13
2019-02-21T03:05:27.076Z,6.30
2019-02-21T03:07:56.562Z,6.63
2019-02-21T03:10:26.084Z,6.50
2019-02-21T03:12:55.582Z,6.50
2019-02-21T03:15:25.238Z,6.87
2019-02-21T03:17:54.739Z,7.13
2019-02-21T03:20:24.318Z,7.20
2019-02-21T03:22:53.900Z,7.53
2019-02-21T03:25:23.513Z,7.80
2019-02-21T03:27:53.051Z,7.67
2019-02-21T03:30:22.547Z,7.87
2019-02-21T03:32:52.012Z,8.33
2019-02-21T03:35:21.468Z,8.40
2019-02-21T03:37:50.965Z,8.00
2019-02-21T03:40:20.480Z,8.30
2019-02-21T03:42:49.952Z,9.00
2019-02-21T03:45:19.428Z,8.77
2019-02-21T03:47:48.879Z,8.83
2019-02-21T03:50:18.349Z,8.57
2019-02-21T03:52:47.824Z,9.00
2019-02-21T03:55:17.346Z,10.27
2019-02-21T03:57:46.960Z,8.63
2019-02-21T04:00:16.407Z,9.30
2019-02-21T04:02:45.989Z,9.40
2019-02-21T04:05:15.459Z,10.03
2019-02-21T04:07:44.947Z,9.83
2019-02-21T04:10:14.502Z,9.40
2019-02-21T04:12:43.987Z,10.60
2019-02-21T04:15:14.013Z,10.50
2019-02-21T04:17:43.486Z,10.40
2019-02-21T04:20:12.950Z,11.10
2019-02-21T04:22:42.399Z,10.53
2019-02-21T04:25:11.889Z,10.80
2019-02-21T04:27:41.356Z,10.80
2019-02-21T04:30:10.917Z,10.57
2019-02-21T04:32:40.488Z,11.03
2019-02-21T04:35:10.133Z,10.90
2019-02-21T04:37:39.627Z,11.80
2019-02-21T04:40:09.206Z,11.87
2019-02-21T04:42:38.665Z,12.10
2019-02-21T04:45:08.319Z,12.13
2019-02-21T04:47:37.788Z,13.07
2019-02-21T04:50:07.560Z,12.00
2019-02-21T04:52:37.019Z,13.47
2019-02-21T04:55:06.850Z,12.27
2019-02-21T04:57:36.360Z,13.03
2019-02-21T05:00:07.337Z,13.77
2019-02-21T05:02:36.781Z,13.10
2019-02-21T05:05:06.636Z,12.77
2019-02-21T05:07:36.115Z,13.13
2019-02-21T05:10:05.847Z,13.13
2019-02-21T05:12:35.360Z,13.43
2019-02-21T05:15:05.328Z,12.43
2019-02-21T05:17:34.811Z,12.67
2019-02-21T05:20:04.652Z,13.47
2019-02-21T05:22:34.126Z,13.63
2019-02-21T05:25:03.801Z,13.47
2019-02-21T05:27:39.919Z,14.03
2019-02-21T05:30:12.067Z,13.40
2019-02-21T05:33:03.575Z,13.33
2019-02-21T05:35:39.071Z,14.47
2019-02-21T05:38:30.438Z,14.57
2019-02-21T05:41:17.860Z,15.60
2019-02-21T05:43:59.641Z,15.80
2019-02-21T05:46:51.051Z,16.23
2019-02-21T05:49:26.989Z,15.53
2019-02-21T05:52:10.785Z,15.77
2019-02-21T05:55:02.629Z,16.00
2019-02-21T05:57:41.307Z,16.80
2019-02-21T06:00:25.621Z,17.33
2019-02-21T06:03:35.772Z,18.60
2019-02-21T06:06:31.800Z,18.00
2019-02-21T06:09:19.501Z,17.87
2019-02-21T06:12:11.600Z,17.60
2019-02-21T06:14:45.910Z,17.90
2019-02-21T06:17:34.291Z,18.37
2019-02-21T06:20:21.986Z,17.77
2019-02-21T06:22:59.718Z,18.67
2019-02-21T06:25:55.432Z,18.47
2019-02-21T06:28:27.200Z,17.03
2019-02-21T06:31:00.636Z,17.17
2019-02-21T06:33:30.095Z,18.37
2019-02-21T06:35:59.729Z,17.83
2019-02-21T06:38:29.289Z,18.03
2019-02-21T06:40:58.827Z,17.80
2019-02-21T06:43:28.464Z,19.13
2019-02-21T06:45:58.232Z,18.77
2019-02-21T06:48:27.875Z,21.27
2019-02-21T06:50:57.556Z,17.90
2019-02-21T06:53:27.027Z,16.93
2019-02-21T06:55:56.505Z,17.47
2019-02-21T06:58:26.032Z,18.53
2019-02-21T07:00:55.707Z,17.30
2019-02-21T07:03:25.250Z,17.70
2019-02-21T07:05:55.725Z,17.93
2019-02-21T07:08:25.287Z,17.30
2019-02-21T07:11:05.450Z,17.20
2019-02-21T07:13:27.056Z,18.60
2019-02-21T07:15:58.493Z,18.13
2019-02-21T07:18:28.928Z,18.67
2019-02-21T07:20:58.816Z,19.20
2019-02-21T07:23:32.697Z,17.87
2019-02-21T07:26:05.565Z,18.53
2019-02-21T07:28:35.197Z,19.00
2019-02-21T07:31:05.012Z,19.23
2019-02-21T07:33:34.601Z,18.37
2019-02-21T07:36:04.195Z,19.53
2019-02-21T07:38:33.677Z,18.57
2019-02-21T07:41:03.238Z,19.03
2019-02-21T07:43:33.012Z,19.13
2019-02-21T07:46:02.614Z,19.40
2019-02-21T07:48:32.134Z,18.13
2019-02-21T07:51:01.641Z,18.30
2019-02-21T07:53:31.155Z,17.83
2019-02-21T07:56:00.764Z,17.97
2019-02-21T07:58:52.647Z,18.53
2019-02-21T08:01:56.566Z,18.17
2019-02-21T08:04:31.334Z,18.27
2019-02-21T08:07:00.944Z,18.40
2019-02-21T08:09:30.504Z,17.23
2019-02-21T08:12:00.112Z,17.77
2019-02-21T08:14:29.655Z,18.17
2019-02-21T08:16:59.239Z,18.70
2019-02-21T08:19:28.783Z,18.67
2019-02-21T08:22:00.195Z,18.37
2019-02-21T08:24:29.539Z,17.80
2019-02-21T08:26:59.086Z,17.77
2019-02-21T08:29:28.616Z,19.80
2019-02-21T08:31:58.308Z,18.00
2019-02-21T08:34:32.383Z,18.03
2019-02-21T08:37:02.064Z,19.40
2019-02-21T08:39:31.584Z,19.87
2019-02-21T08:42:01.082Z,19.40
2019-02-21T08:44:30.613Z,20.30
2019-02-21T08:47:00.102Z,20.80
2019-02-21T08:49:29.640Z,20.83
2019-02-21T08:51:59.130Z,22.00
2019-02-21T08:54:28.602Z,21.37
2019-02-21T08:56:58.057Z,20.90
2019-02-21T08:59:27.687Z,22.40
2019-02-21T09:01:57.310Z,20.83
2019-02-21T09:04:27.960Z,21.40
2019-02-21T09:06:57.560Z,22.40
2019-02-21T09:09:27.112Z,22.57
2019-02-21T09:11:56.748Z,21.60
2019-02-21T09:14:26.357Z,21.27
2019-02-21T09:16:55.873Z,23.03
2019-02-21T09:19:25.441Z,22.37
2019-02-21T09:21:55.001Z,21.33
2019-02-21T09:24:37.791Z,23.63
2019-02-21T09:26:58.116Z,22.00
2019-02-21T09:29:27.554Z,21.50
2019-02-21T09:31:57.141Z,23.03
2019-02-21T09:34:27.008Z,22.13
2019-02-21T09:36:56.635Z,20.80
2019-02-21T09:39:27.442Z,23.10
2019-02-21T09:41:57.031Z,22.40
2019-02-21T09:44:27.428Z,20.87
2019-02-21T09:46:58.642Z,22.23
2019-02-21T09:49:28.169Z,20.87
2019-02-21T09:52:00.036Z,21.03
2019-02-21T09:54:29.654Z,19.30
2019-02-21T09:56:59.249Z,21.20
2019-02-21T09:59:28.939Z,19.90
2019-02-21T10:01:58.560Z,20.77
2019-02-21T10:04:32.234Z,20.67
2019-02-21T10:06:59.418Z,21.60
2019-02-21T10:09:29.028Z,20.87
2019-02-21T10:11:59.220Z,19.67
2019-02-21T10:14:28.892Z,20.03
2019-02-21T10:16:58.447Z,19.70
2019-02-21T10:19:27.955Z,19.50
2019-02-21T10:21:57.494Z,20.57
2019-02-21T10:24:27.074Z,19.67
2019-02-21T10:26:56.698Z,18.90
2019-02-21T10:29:26.183Z,19.27
2019-02-21T10:31:55.721Z,18.63
2019-02-21T10:34:25.221Z,18.20
2019-02-21T10:36:54.785Z,17.83
2019-02-21T10:39:24.288Z,18.97
2019-02-21T10:41:53.764Z,18.13
2019-02-21T10:44:23.306Z,18.47
2019-02-21T10:46:52.793Z,18.77
2019-02-21T10:49:22.403Z,17.53
2019-02-21T10:51:51.983Z,17.40
2019-02-21T10:54:21.623Z,16.53
2019-02-21T10:56:51.219Z,17.23
2019-02-21T10:59:20.773Z,16.47
2019-02-21T11:01:50.430Z,16.50
2019-02-21T11:04:20.042Z,16.20
2019-02-21T11:06:49.571Z,16.83
2019-02-21T11:09:23.035Z,17.10
2019-02-21T11:11:52.680Z,14.67
2019-02-21T11:14:22.344Z,15.73
2019-02-21T11:16:51.882Z,15.27
2019-02-21T11:19:21.431Z,14.30
2019-02-21T11:21:50.993Z,14.80
2019-02-21T11:24:20.610Z,15.50
2019-02-21T11:26:50.182Z,14.30
2019-02-21T11:29:19.717Z,15.53
2019-02-21T11:31:49.343Z,14.87
2019-02-21T11:34:19.026Z,13.53
2019-02-21T11:36:48.683Z,14.33
2019-02-21T11:39:18.189Z,14.17
2019-02-21T11:41:48.170Z,14.93
2019-02-21T11:44:17.820Z,14.37
2019-02-21T11:46:47.504Z,12.50
2019-02-21T11:49:17.376Z,12.53
2019-02-21T11:51:46.858Z,12.57
2019-02-21T11:54:26.538Z,13.40
2019-02-21T11:56:47.692Z,12.97
2019-02-21T11:59:17.491Z,12.50
2019-02-21T12:01:47.026Z,12.47
2019-02-21T12:04:16.586Z,12.80
2019-02-21T12:06:47.715Z,11.63
2019-02-21T12:09:18.002Z,11.53
2019-02-21T12:11:47.500Z,11.40
2019-02-21T12:14:17.427Z,11.23
2019-02-21T12:16:46.927Z,11.40
2019-02-21T12:19:16.706Z,10.67
2019-02-21T12:21:46.318Z,10.70
2019-02-21T12:24:17.330Z,11.30
2019-02-21T12:26:46.806Z,10.37
2019-02-21T12:29:16.316Z,11.00
2019-02-21T12:31:45.935Z,10.73
2019-02-21T12:34:15.479Z,10.40
2019-02-21T12:36:44.967Z,10.70
2019-02-21T12:39:14.529Z,10.10
2019-02-21T12:41:44.012Z,10.30
2019-02-21T12:44:13.582Z,11.20
2019-02-21T12:46:45.563Z,11.37
2019-02-21T12:49:14.376Z,10.20
2019-02-21T12:51:43.904Z,10.70
2019-02-21T12:54:13.433Z,9.87
2019-02-21T12:56:42.979Z,10.83
2019-02-21T12:59:12.697Z,10.53
2019-02-21T13:01:42.155Z,10.37
2019-02-21T13:04:11.915Z,9.60
2019-02-21T13:06:41.360Z,10.33
2019-02-21T13:09:10.893Z,9.80
2019-02-21T13:11:40.340Z,9.97
2019-02-21T13:14:09.874Z,9.53
2019-02-21T13:16:39.343Z,9.13
2019-02-21T13:19:08.946Z,9.73
2019-02-21T13:21:38.414Z,9.23
2019-02-21T13:24:07.967Z,9.87
2019-02-21T13:26:37.481Z,9.47
2019-02-21T13:29:07.112Z,10.00
2019-02-21T13:31:36.810Z,9.63
2019-02-21T13:34:06.406Z,8.97
2019-02-21T13:36:35.970Z,9.50
2019-02-21T13:39:07.844Z,9.10
2019-02-21T13:41:37.368Z,9.57
2019-02-21T13:44:06.999Z,9.03
2019-02-21T13:46:38.696Z,8.37
2019-02-21T13:49:07.600Z,9.30
2019-02-21T13:51:37.084Z,9.17
2019-02-21T13:54:06.713Z,9.10
2019-02-21T13:56:36.301Z,8.83
2019-02-21T13:59:05.921Z,9.93
2019-02-21T14:01:35.398Z,9.00
2019-02-21T14:04:05.143Z,9.73
2019-02-21T14:06:34.738Z,9.47
2019-02-21T14:09:05.805Z,8.93
2019-02-21T14:11:35.411Z,9.47
2019-02-21T14:14:05.114Z,9.37
2019-02-21T14:16:45.738Z,7.87
2019-02-21T14:19:06.023Z,7.97
2019-02-21T14:21:35.579Z,9.00
2019-02-21T14:24:05.024Z,8.63
2019-02-21T14:26:34.490Z,8.33
2019-02-21T14:29:04.066Z,8.63
2019-02-21T14:31:33.736Z,7.90
2019-02-21T14:34:03.409Z,7.60
2019-02-21T14:36:32.904Z,7.13
2019-02-21T14:39:02.454Z,6.60
2019-02-21T14:41:31.983Z,7.17
2019-02-21T14:44:01.473Z,6.87
2019-02-21T14:46:31.045Z,6.83
2019-02-21T14:49:00.501Z,7.37
2019-02-21T14:51:30.047Z,7.53
2019-02-21T14:53:59.578Z,7.70
2019-02-21T14:56:29.046Z,9.83
2019-02-21T14:58:58.612Z,9.27
2019-02-21T15:01:28.116Z,10.10
2019-02-21T15:03:57.564Z,9.30
2019-02-21T15:06:27.658Z,9.57
2019-02-21T15:08:57.284Z,9.30
2019-02-21T15:11:26.882Z,9.03
2019-02-21T15:13:56.388Z,10.40
2019-02-21T15:16:25.914Z,10.77
2019-02-21T15:18:55.494Z,10.43
2019-02-21T15:21:25.261Z,10.03
2019-02-21T15:23:54.776Z,9.43
2019-02-21T15:26:24.256Z,10.93
2019-02-21T15:28:53.735Z,10.30
2019-02-21T15:31:23.321Z,9.93
2019-02-21T15:33:52.778Z,9.73
2019-02-21T15:36:22.341Z,9.73
2019-02-21T15:38:51.962Z,9.70
2019-02-21T15:41:21.433Z,10.17
2019-02-21T15:43:50.975Z,10.23
2019-02-21T15:46:20.497Z,9.83
2019-02-21T15:48:50.169Z,10.23
2019-02-21T15:51:19.767Z,9.67
2019-02-21T15:53:49.281Z,10.20
2019-02-21T15:56:18.844Z,9.70
2019-02-21T15:58:48.313Z,9.43
2019-02-21T16:01:19.869Z,8.97
2019-02-21T16:03:49.219Z,8.93
2019-02-21T16:06:18.715Z,9.67
2019-02-21T16:08:48.249Z,9.93
2019-02-21T16:11:17.729Z,9.73
2019-02-21T16:13:47.679Z,10.03
2019-02-21T16:16:17.863Z,9.87
2019-02-21T16:18:47.524Z,9.83
2019-02-21T16:21:17.150Z,9.83
2019-02-21T16:23:46.719Z,10.13
2019-02-21T16:26:16.331Z,10.13
2019-02-21T16:28:45.954Z,9.50
2019-02-21T16:31:15.495Z,9.17
2019-02-21T16:33:45.013Z,9.30
2019-02-21T16:36:14.545Z,10.40
2019-02-21T16:38:44.021Z,9.87
2019-02-21T16:41:13.726Z,9.63
2019-02-21T16:43:43.201Z,9.73
2019-02-21T16:46:12.670Z,9.83
2019-02-21T16:48:42.192Z,9.37
2019-02-21T16:51:11.776Z,9.47
2019-02-21T16:53:41.392Z,10.13
2019-02-21T16:56:13.314Z,9.03
2019-02-21T16:58:42.906Z,10.17
2019-02-21T17:01:12.675Z,10.20
2019-02-21T17:03:42.278Z,9.67
2019-02-21T17:06:12.288Z,9.30
2019-02-21T17:08:41.868Z,9.53
2019-02-21T17:11:11.378Z,10.07
2019-02-21T17:13:40.921Z,9.87
2019-02-21T17:16:10.370Z,9.50
2019-02-21T17:18:39.900Z,10.73
2019-02-21T17:21:09.510Z,10.33
2019-02-21T17:23:39.092Z,10.83
2019-02-21T17:26:08.573Z,10.77
2019-02-21T17:28:38.037Z,10.63
2019-02-21T17:31:07.543Z,12.17
2019-02-21T17:33:37.099Z,11.33
2019-02-21T17:36:06.756Z,12.40
2019-02-21T17:38:36.310Z,12.40
2019-02-21T17:41:05.803Z,13.73
2019-02-21T17:43:35.349Z,12.33
2019-02-21T17:46:05.003Z,13.37
2019-02-21T17:48:34.497Z,12.97
2019-02-21T17:51:04.232Z,12.70
2019-02-21T17:53:33.822Z,13.17
2019-02-21T17:56:04.423Z,13.37
2019-02-21T17:58:33.942Z,13.10
2019-02-21T18:01:04.195Z,13.70
2019-02-21T18:03:33.981Z,14.37
2019-02-21T18:06:03.671Z,13.00
2019-02-21T18:08:33.294Z,13.40
2019-02-21T18:11:02.845Z,13.20
2019-02-21T18:13:32.369Z,16.40
2019-02-21T18:16:01.933Z,13.57
2019-02-21T18:18:31.482Z,13.87
2019-02-21T18:21:01.099Z,14.73
2019-02-21T18:23:30.702Z,14.93
2019-02-21T18:26:05.188Z,15.30
2019-02-21T18:28:36.285Z,15.00
2019-02-21T18:31:05.964Z,15.07
2019-02-21T18:33:35.442Z,14.53
2019-02-21T18:36:05.115Z,14.83
2019-02-21T18:38:34.646Z,14.87
2019-02-21T18:41:04.349Z,15.97
2019-02-21T18:43:33.900Z,15.63
2019-02-21T18:46:04.336Z,15.30
2019-02-21T18:48:33.920Z,16.13
2019-02-21T18:51:03.389Z,17.70
2019-02-21T18:53:32.902Z,17.80
2019-02-21T18:56:02.404Z,18.93
2019-02-21T18:58:31.888Z,19.07
2019-02-21T19:01:01.417Z,18.03
2019-02-21T19:03:31.163Z,20.37
2019-02-21T19:06:00.710Z,18.53
2019-02-21T19:08:30.229Z,19.63
2019-02-21T19:10:59.756Z,21.63
2019-02-21T19:13:29.293Z,21.07
2019-02-21T19:15:58.747Z,21.93
2019-02-21T19:18:28.249Z,21.80
2019-02-21T19:20:57.808Z,23.57
2019-02-21T19:23:27.417Z,23.43
2019-02-21T19:25:56.958Z,23.70
2019-02-21T19:28:26.512Z,26.43
2019-02-21T19:31:02.780Z,25.00
2019-02-21T19:33:32.401Z,26.47
2019-02-21T19:36:01.943Z,26.10
2019-02-21T19:38:31.691Z,26.40
2019-02-21T19:41:01.226Z,26.53
2019-02-21T19:43:30.735Z,26.70
2019-02-21T19:46:00.269Z,28.77
2019-02-21T19:48:29.942Z,29.57
2019-02-21T19:50:59.463Z,30.60
2019-02-21T19:53:28.958Z,31.50
2019-02-21T19:55:58.490Z,33.23
2019-02-21T19:58:28.117Z,32.73
2019-02-21T20:00:57.718Z,33.30
2019-02-21T20:03:27.330Z,35.17
2019-02-21T20:05:57.032Z,33.20
2019-02-21T20:08:26.604Z,33.67
2019-02-21T20:10:56.154Z,34.27
2019-02-21T20:13:25.766Z,34.40
2019-02-21T20:15:55.222Z,35.37
2019-02-21T20:18:24.782Z,35.40
2019-02-21T20:20:54.310Z,34.97
2019-02-21T20:23:23.764Z,34.47
2019-02-21T20:25:53.212Z,34.80
2019-02-21T20:28:22.755Z,35.20
2019-02-21T20:30:52.366Z,35.03
2019-02-21T20:33:21.891Z,34.43
2019-02-21T20:35:51.386Z,35.57
2019-02-21T20:38:31.650Z,34.80
2019-02-21T20:40:51.996Z,34.83
2019-02-21T20:43:21.569Z,36.23
2019-02-21T20:45:53.402Z,34.10
2019-02-21T20:48:22.396Z,34.80
2019-02-21T20:50:56.981Z,35.17
2019-02-21T20:53:23.489Z,35.37
2019-02-21T20:55:52.973Z,33.53
2019-02-21T20:58:22.581Z,34.03
2019-02-21T21:00:52.334Z,34.20
2019-02-21T21:03:24.024Z,33.90
2019-02-21T21:05:53.231Z,33.57
2019-02-21T21:08:22.725Z,32.17
2019-02-21T21:10:52.317Z,31.53
2019-02-21T21:13:21.796Z,31.20
2019-02-21T21:15:51.377Z,30.40
2019-02-21T21:18:20.939Z,31.60
2019-02-21T21:20:50.445Z,33.50
2019-02-21T21:23:19.964Z,33.70
2019-02-21T21:25:49.451Z,33.93
2019-02-21T21:28:19.015Z,34.30
2019-02-21T21:30:48.593Z,33.40
2019-02-21T21:33:18.325Z,33.47
2019-02-21T21:35:47.976Z,33.83
2019-02-21T21:38:24.165Z,32.33
2019-02-21T21:40:48.807Z,33.73
2019-02-21T21:43:18.315Z,33.27
2019-02-21T21:45:47.881Z,32.07
2019-02-21T21:48:17.444Z,33.23
2019-02-21T21:50:47.051Z,32.10
2019-02-21T21:53:16.561Z,31.33
2019-02-21T21:55:46.103Z,30.00
2019-02-21T21:58:15.612Z,29.80
2019-02-21T22:00:45.348Z,28.10
2019-02-21T22:03:14.941Z,29.50
2019-02-21T22:05:44.597Z,28.43
2019-02-21T22:08:14.229Z,28.80
2019-02-21T22:10:43.740Z,27.80
2019-02-21T22:13:13.576Z,27.77
2019-02-21T22:15:43.103Z,28.57
2019-02-21T22:18:12.704Z,28.97
2019-02-21T22:20:42.260Z,30.10
2019-02-21T22:23:11.776Z,25.70
2019-02-21T22:25:41.362Z,28.53
2019-02-21T22:28:10.842Z,27.57
2019-02-21T22:30:40.480Z,27.50
2019-02-21T22:33:10.020Z,27.23
2019-02-21T22:35:39.597Z,26.93
2019-02-21T22:38:09.066Z,26.60
2019-02-21T22:40:38.538Z,28.07
2019-02-21T22:43:08.062Z,27.17
2019-02-21T22:45:37.698Z,28.20
2019-02-21T22:48:07.119Z,29.10
2019-02-21T22:50:36.688Z,26.80
2019-02-21T22:53:06.303Z,27.47
2019-02-21T22:55:35.850Z,25.90
2019-02-21T22:58:05.419Z,25.90
2019-02-21T23:01:12.437Z,27.40
2019-02-21T23:03:45.829Z,24.87
2019-02-21T23:06:58.930Z,25.60
2019-02-21T23:09:28.741Z,24.97
2019-02-21T23:11:58.294Z,25.00
2019-02-21T23:14:28.712Z,24.27
2019-02-21T23:16:58.364Z,25.37
2019-02-21T23:19:28.225Z,25.13
2019-02-21T23:21:57.715Z,24.60
2019-02-21T23:24:27.383Z,23.77
2019-02-21T23:26:56.914Z,23.97
2019-02-21T23:29:26.379Z,23.33
2019-02-21T23:31:55.886Z,22.07
2019-02-21T23:34:46.655Z,22.20
2019-02-21T23:37:16.123Z,21.87
2019-02-21T23:39:45.918Z,20.20
2019-02-21T23:42:15.425Z,17.67
2019-02-21T23:44:44.887Z,17.70
2019-02-21T23:47:14.440Z,16.80
2019-02-21T23:49:43.975Z,15.83
2019-02-21T23:52:13.538Z,15.93
2019-02-21T23:54:43.124Z,15.63
2019-02-21T23:57:12.616Z,16.23
2019-02-21T23:59:42.157Z,15.60
